createdAt,value
2017-12-31T00:00:42.725Z,19.05
2017-12-31T00:03:10.893Z,21.03
2017-12-31T00:05:39.063Z,17.90
2017-12-31T00:08:07.999Z,18.53
2017-12-31T00:10:36.174Z,17.30
2017-12-31T00:13:04.352Z,16.57
2017-12-31T00:15:32.509Z,17.47
2017-12-31T00:18:00.669Z,19.73
2017-12-31T00:20:28.854Z,19.20
2017-12-31T00:22:57.030Z,17.37
2017-12-31T00:25:25.238Z,19.08
2017-12-31T00:27:53.406Z,20.13
2017-12-31T00:30:21.564Z,20.10
2017-12-31T00:32:49.740Z,20.07
2017-12-31T00:35:17.946Z,25.60
2017-12-31T00:37:46.119Z,17.60
2017-12-31T00:40:14.303Z,18.40
2017-12-31T00:42:42.462Z,18.03
2017-12-31T00:45:10.638Z,23.30
2017-12-31T00:47:38.807Z,24.50
2017-12-31T00:50:07.001Z,24.83
2017-12-31T00:52:35.175Z,18.63
2017-12-31T00:55:03.355Z,20.20
2017-12-31T00:57:32.293Z,17.27
2017-12-31T01:00:00.449Z,18.30
2017-12-31T01:02:28.611Z,23.08
2017-12-31T01:04:57.554Z,19.40
2017-12-31T01:07:25.718Z,41.87
2017-12-31T01:09:53.918Z,24.85
2017-12-31T01:12:22.096Z,20.65
2017-12-31T01:14:50.258Z,19.10
2017-12-31T01:17:18.421Z,16.03
2017-12-31T01:19:46.595Z,19.20
2017-12-31T01:22:14.808Z,22.20
2017-12-31T01:24:42.984Z,20.50
2017-12-31T01:27:11.922Z,18.80
2017-12-31T01:29:40.092Z,20.60
2017-12-31T01:32:08.285Z,22.00
2017-12-31T01:34:36.445Z,20.30
2017-12-31T01:37:05.482Z,20.80
2017-12-31T01:39:33.677Z,18.67
2017-12-31T01:42:02.607Z,18.73
2017-12-31T01:44:30.767Z,26.40
2017-12-31T01:46:58.941Z,16.70
2017-12-31T01:49:27.115Z,20.07
2017-12-31T01:51:55.286Z,14.37
2017-12-31T01:54:23.460Z,16.57
2017-12-31T01:56:51.654Z,15.47
2017-12-31T01:59:19.828Z,17.13
2017-12-31T02:01:48.003Z,16.93
2017-12-31T02:04:16.163Z,21.03
2017-12-31T02:06:44.333Z,17.30
2017-12-31T02:09:12.508Z,17.50
2017-12-31T02:11:40.675Z,15.20
2017-12-31T02:14:08.877Z,17.60
2017-12-31T02:16:37.029Z,20.70
2017-12-31T02:19:05.200Z,17.33
2017-12-31T02:21:33.402Z,17.07
2017-12-31T02:24:01.567Z,20.90
2017-12-31T02:26:29.743Z,22.17
2017-12-31T02:28:57.917Z,18.30
2017-12-31T02:31:26.082Z,16.10
2017-12-31T02:33:54.271Z,17.05
2017-12-31T02:36:22.467Z,17.63
2017-12-31T02:38:50.675Z,18.57
2017-12-31T02:41:18.845Z,15.90
2017-12-31T02:43:47.783Z,17.90
2017-12-31T02:46:15.962Z,16.80
2017-12-31T02:48:44.158Z,18.90
2017-12-31T02:51:12.346Z,20.53
2017-12-31T02:53:40.567Z,16.10
2017-12-31T02:56:09.482Z,23.53
2017-12-31T02:58:37.657Z,14.27
2017-12-31T03:01:05.813Z,13.77
2017-12-31T03:03:33.990Z,18.17
2017-12-31T03:06:02.150Z,15.57
2017-12-31T03:08:31.069Z,13.83
2017-12-31T03:10:59.230Z,13.17
2017-12-31T03:13:27.397Z,12.43
2017-12-31T03:15:55.550Z,13.23
2017-12-31T03:18:24.485Z,16.00
2017-12-31T03:20:52.675Z,11.70
2017-12-31T03:23:20.826Z,11.43
2017-12-31T03:25:49.021Z,12.37
2017-12-31T03:28:17.185Z,14.77
2017-12-31T03:30:45.338Z,13.70
2017-12-31T03:33:13.502Z,14.57
2017-12-31T03:35:42.426Z,14.37
2017-12-31T03:38:10.585Z,14.17
2017-12-31T03:40:38.770Z,13.83
2017-12-31T03:43:06.929Z,16.20
2017-12-31T03:45:35.119Z,13.83
2017-12-31T03:48:03.307Z,14.17
2017-12-31T03:50:31.469Z,21.20
2017-12-31T03:52:59.642Z,25.50
2017-12-31T03:55:27.831Z,29.17
2017-12-31T03:57:55.992Z,30.43
2017-12-31T04:00:24.186Z,31.90
2017-12-31T04:02:52.365Z,31.77
2017-12-31T04:05:20.562Z,33.53
2017-12-31T04:07:48.726Z,35.23
2017-12-31T04:10:16.919Z,36.17
2017-12-31T04:12:45.088Z,32.40
2017-12-31T04:15:13.270Z,28.23
2017-12-31T04:17:42.206Z,33.80
2017-12-31T04:20:10.393Z,32.77
2017-12-31T04:22:38.558Z,30.10
2017-12-31T04:25:06.728Z,34.17
2017-12-31T04:27:34.920Z,32.63
2017-12-31T04:30:03.106Z,33.00
2017-12-31T04:32:31.261Z,32.17
2017-12-31T04:34:59.417Z,33.33
2017-12-31T04:37:27.588Z,32.57
2017-12-31T04:39:55.752Z,31.70
2017-12-31T04:42:23.913Z,32.53
2017-12-31T04:44:52.849Z,35.27
2017-12-31T04:47:21.021Z,31.03
2017-12-31T04:49:49.182Z,35.77
2017-12-31T04:52:17.337Z,31.03
2017-12-31T04:54:46.269Z,29.23
2017-12-31T04:57:14.461Z,32.13
2017-12-31T04:59:42.645Z,29.47
2017-12-31T05:02:10.817Z,29.27
2017-12-31T05:04:38.985Z,25.33
2017-12-31T05:07:07.153Z,25.03
2017-12-31T05:09:35.313Z,29.00
2017-12-31T05:12:03.490Z,28.23
2017-12-31T05:14:31.659Z,26.87
2017-12-31T05:16:59.818Z,24.97
2017-12-31T05:19:27.980Z,26.47
2017-12-31T05:21:56.178Z,26.50
2017-12-31T05:24:24.386Z,25.20
2017-12-31T05:26:52.541Z,30.03
2017-12-31T05:29:20.705Z,25.47
2017-12-31T05:31:48.861Z,22.70
2017-12-31T05:34:17.033Z,24.47
2017-12-31T05:36:45.194Z,30.97
2017-12-31T05:39:14.141Z,34.07
2017-12-31T05:41:42.306Z,24.87
2017-12-31T05:44:10.466Z,26.93
2017-12-31T05:46:38.638Z,20.33
2017-12-31T05:49:06.789Z,22.10
2017-12-31T05:51:34.995Z,22.30
2017-12-31T05:54:03.182Z,22.90
2017-12-31T05:56:31.357Z,19.47
2017-12-31T05:58:59.520Z,22.73
2017-12-31T06:01:27.710Z,28.20
2017-12-31T06:03:56.081Z,24.50
2017-12-31T06:06:24.239Z,22.07
2017-12-31T06:08:52.397Z,23.53
2017-12-31T06:11:20.598Z,26.60
2017-12-31T06:13:48.790Z,32.43
2017-12-31T06:16:16.953Z,25.37
2017-12-31T06:18:45.112Z,29.83
2017-12-31T06:21:13.288Z,27.60
2017-12-31T06:23:41.478Z,30.33
2017-12-31T06:26:09.642Z,23.43
2017-12-31T06:28:37.808Z,30.70
2017-12-31T06:31:05.985Z,30.07
2017-12-31T06:33:34.159Z,31.53
2017-12-31T06:36:02.319Z,34.40
2017-12-31T06:38:30.474Z,26.40
2017-12-31T06:40:59.433Z,22.07
2017-12-31T06:43:27.618Z,25.60
2017-12-31T06:45:55.781Z,26.27
2017-12-31T06:48:23.937Z,24.00
2017-12-31T06:50:52.130Z,23.43
2017-12-31T06:53:20.330Z,21.97
2017-12-31T06:55:49.263Z,17.10
2017-12-31T06:58:17.417Z,21.97
2017-12-31T07:00:45.584Z,28.43
2017-12-31T07:03:13.751Z,24.20
2017-12-31T07:05:42.678Z,26.50
2017-12-31T07:08:10.860Z,39.23
2017-12-31T07:10:39.024Z,33.20
2017-12-31T07:13:07.185Z,26.80
2017-12-31T07:15:35.345Z,22.00
2017-12-31T07:18:04.287Z,22.63
2017-12-31T07:20:32.449Z,25.97
2017-12-31T07:23:00.616Z,26.70
2017-12-31T07:25:28.804Z,22.87
2017-12-31T07:27:56.971Z,25.37
2017-12-31T07:30:25.148Z,23.40
2017-12-31T07:32:53.320Z,24.73
2017-12-31T07:35:21.477Z,25.13
2017-12-31T07:37:49.634Z,21.53
2017-12-31T07:40:18.563Z,22.80
2017-12-31T07:42:46.741Z,24.07
2017-12-31T07:45:14.898Z,25.80
2017-12-31T07:47:43.066Z,21.47
2017-12-31T07:50:11.225Z,24.20
2017-12-31T07:52:40.148Z,22.00
2017-12-31T07:55:08.335Z,20.17
2017-12-31T07:57:36.492Z,20.27
2017-12-31T08:00:04.657Z,21.60
2017-12-31T08:02:32.846Z,23.73
2017-12-31T08:05:01.039Z,17.77
2017-12-31T08:07:29.212Z,20.47
2017-12-31T08:09:57.393Z,18.20
2017-12-31T08:12:25.557Z,17.00
2017-12-31T08:14:53.714Z,23.43
2017-12-31T08:17:21.883Z,19.07
2017-12-31T08:19:50.073Z,19.73
2017-12-31T08:22:18.238Z,24.10
2017-12-31T08:24:46.407Z,26.77
2017-12-31T08:27:14.561Z,30.53
2017-12-31T08:29:43.495Z,27.80
2017-12-31T08:32:11.696Z,31.53
2017-12-31T08:34:39.856Z,35.03
2017-12-31T08:37:08.014Z,29.13
2017-12-31T08:39:36.176Z,31.77
2017-12-31T08:42:04.350Z,33.90
2017-12-31T08:44:32.509Z,33.50
2017-12-31T08:47:00.685Z,33.10
2017-12-31T08:49:28.842Z,32.23
2017-12-31T08:51:57.764Z,37.80
2017-12-31T08:54:25.958Z,35.67
2017-12-31T08:56:54.117Z,33.70
2017-12-31T08:59:22.277Z,35.93
2017-12-31T09:01:50.435Z,34.40
2017-12-31T09:04:19.372Z,34.63
2017-12-31T09:06:47.527Z,35.67
2017-12-31T09:09:15.775Z,34.43
2017-12-31T09:11:43.920Z,30.50
2017-12-31T09:14:12.142Z,30.07
2017-12-31T09:16:40.269Z,29.27
2017-12-31T09:19:08.438Z,37.80
2017-12-31T09:21:36.627Z,30.47
2017-12-31T09:24:05.578Z,31.20
2017-12-31T09:26:33.742Z,35.00
2017-12-31T09:29:01.906Z,30.10
2017-12-31T09:31:30.092Z,31.63
2017-12-31T09:33:58.278Z,33.57
2017-12-31T09:36:26.444Z,31.07
2017-12-31T09:38:54.626Z,28.90
2017-12-31T09:41:22.802Z,35.73
2017-12-31T09:43:50.978Z,32.30
2017-12-31T09:46:19.154Z,32.33
2017-12-31T09:48:47.327Z,31.33
2017-12-31T09:51:15.523Z,31.20
2017-12-31T09:53:43.686Z,34.27
2017-12-31T09:56:11.845Z,31.53
2017-12-31T09:58:40.015Z,31.20
2017-12-31T10:01:08.183Z,26.53
2017-12-31T10:03:36.349Z,25.23
2017-12-31T10:06:04.514Z,26.97
2017-12-31T10:08:32.673Z,24.30
2017-12-31T10:11:01.612Z,24.37
2017-12-31T10:13:29.835Z,31.10
2017-12-31T10:15:57.966Z,29.20
2017-12-31T10:18:26.125Z,30.87
2017-12-31T10:20:54.298Z,31.23
2017-12-31T10:23:22.505Z,25.77
2017-12-31T10:25:50.679Z,32.60
2017-12-31T10:28:18.841Z,23.83
2017-12-31T10:30:47.006Z,18.00
2017-12-31T10:33:15.174Z,23.03
2017-12-31T10:35:43.365Z,19.50
2017-12-31T10:38:11.533Z,20.73
2017-12-31T10:40:39.707Z,21.60
2017-12-31T10:43:07.871Z,22.47
2017-12-31T10:45:36.053Z,22.40
2017-12-31T10:48:04.326Z,24.13
2017-12-31T10:50:32.513Z,23.27
2017-12-31T10:53:00.682Z,21.63
2017-12-31T10:55:28.850Z,20.60
2017-12-31T10:57:57.025Z,20.13
2017-12-31T11:00:25.223Z,23.50
2017-12-31T11:02:53.405Z,24.17
2017-12-31T11:05:21.617Z,23.17
2017-12-31T11:07:50.553Z,20.93
2017-12-31T11:10:18.758Z,23.63
2017-12-31T11:12:46.941Z,21.63
2017-12-31T11:15:15.127Z,21.73
2017-12-31T11:17:44.128Z,19.90
2017-12-31T11:20:13.063Z,17.00
2017-12-31T11:22:41.265Z,14.70
2017-12-31T11:25:09.445Z,16.97
2017-12-31T11:27:37.655Z,18.83
2017-12-31T11:30:05.822Z,16.60
2017-12-31T11:32:34.801Z,16.20
2017-12-31T11:35:03.764Z,12.37
2017-12-31T11:37:31.983Z,13.00
2017-12-31T11:40:00.171Z,12.53
2017-12-31T11:42:28.342Z,11.67
2017-12-31T11:44:56.559Z,10.80
2017-12-31T11:47:24.747Z,10.43
2017-12-31T11:49:52.954Z,14.20
2017-12-31T11:52:21.889Z,10.03
2017-12-31T11:54:50.101Z,10.03
2017-12-31T11:57:18.323Z,8.43
2017-12-31T12:06:56.963Z,7.47
2017-12-31T12:09:25.128Z,7.40
2017-12-31T12:11:53.299Z,9.73
2017-12-31T12:14:21.461Z,8.30
2017-12-31T12:16:49.640Z,8.70
2017-12-31T12:19:17.814Z,10.10
2017-12-31T12:21:46.046Z,9.67
2017-12-31T12:24:14.965Z,10.47
2017-12-31T12:26:43.168Z,9.73
2017-12-31T12:29:11.361Z,10.30
2017-12-31T12:31:41.494Z,10.53
2017-12-31T12:34:09.690Z,10.00
2017-12-31T12:36:37.886Z,9.83
2017-12-31T12:39:06.114Z,9.93
2017-12-31T12:41:35.047Z,8.83
2017-12-31T12:44:03.218Z,10.17
2017-12-31T12:46:31.436Z,12.00
2017-12-31T12:49:00.377Z,10.17
2017-12-31T12:51:28.551Z,9.60
2017-12-31T12:53:56.761Z,9.53
2017-12-31T12:56:24.974Z,10.13
2017-12-31T12:58:53.914Z,10.50
2017-12-31T13:01:22.091Z,10.37
2017-12-31T13:03:51.059Z,8.97
2017-12-31T13:06:19.233Z,10.27
2017-12-31T13:08:47.409Z,9.13
2017-12-31T13:11:15.580Z,9.47
2017-12-31T13:13:43.765Z,8.90
2017-12-31T13:16:11.954Z,9.00
2017-12-31T13:18:40.125Z,10.03
2017-12-31T13:21:08.292Z,9.93
2017-12-31T13:23:36.467Z,9.77
2017-12-31T13:26:04.632Z,10.03
2017-12-31T13:28:32.801Z,9.53
2017-12-31T13:31:00.965Z,8.83
2017-12-31T13:33:29.130Z,9.30
2017-12-31T13:35:57.297Z,9.07
2017-12-31T13:38:26.230Z,8.80
2017-12-31T13:40:54.402Z,9.77
2017-12-31T13:43:22.590Z,9.57
2017-12-31T13:45:50.794Z,9.43
2017-12-31T13:48:18.967Z,9.50
2017-12-31T13:50:47.170Z,10.67
2017-12-31T13:53:16.113Z,10.33
2017-12-31T13:55:44.280Z,11.57
2017-12-31T13:58:12.451Z,13.07
2017-12-31T14:00:40.618Z,11.90
2017-12-31T14:03:08.796Z,10.57
2017-12-31T14:05:36.978Z,11.27
2017-12-31T14:08:05.154Z,10.60
2017-12-31T14:10:33.328Z,11.47
2017-12-31T14:13:01.540Z,16.43
2017-12-31T14:15:30.879Z,11.77
2017-12-31T14:17:59.059Z,20.30
2017-12-31T14:20:27.244Z,11.70
2017-12-31T14:22:55.455Z,10.97
2017-12-31T14:25:23.647Z,12.87
2017-12-31T14:27:52.590Z,12.30
2017-12-31T14:30:20.775Z,13.10
2017-12-31T14:32:48.982Z,12.10
2017-12-31T14:35:17.946Z,22.57
2017-12-31T14:37:46.132Z,26.73
2017-12-31T14:40:14.305Z,20.93
2017-12-31T14:42:42.477Z,13.70
2017-12-31T14:45:10.653Z,15.77
2017-12-31T14:47:38.822Z,14.67
2017-12-31T14:50:07.003Z,15.60
2017-12-31T14:52:36.010Z,12.47
2017-12-31T14:55:04.233Z,17.43
2017-12-31T14:57:32.460Z,14.90
2017-12-31T15:00:01.409Z,17.50
2017-12-31T15:02:29.588Z,17.07
2017-12-31T15:04:57.767Z,20.03
2017-12-31T15:07:25.960Z,15.70
2017-12-31T15:09:54.896Z,22.10
2017-12-31T15:12:23.078Z,18.70
2017-12-31T15:14:51.284Z,17.00
2017-12-31T15:17:19.531Z,20.57
2017-12-31T15:19:47.699Z,19.30
2017-12-31T15:22:15.878Z,17.40
2017-12-31T15:24:44.058Z,20.60
2017-12-31T15:27:12.226Z,17.20
2017-12-31T15:29:40.682Z,16.97
2017-12-31T15:32:09.630Z,20.20
2017-12-31T15:34:37.790Z,20.43
2017-12-31T15:37:05.957Z,25.13
2017-12-31T15:39:34.121Z,18.07
2017-12-31T15:42:02.330Z,19.87
2017-12-31T15:44:30.494Z,20.03
2017-12-31T15:46:58.661Z,16.37
2017-12-31T15:49:26.872Z,21.77
2017-12-31T15:51:55.020Z,108.50
2017-12-31T15:54:23.281Z,241.50
2017-12-31T15:56:51.454Z,120.47
2017-12-31T15:59:19.625Z,69.10
2017-12-31T16:01:47.779Z,30.97
2017-12-31T16:04:16.705Z,29.57
2017-12-31T16:06:44.883Z,30.20
2017-12-31T16:09:13.049Z,25.80
2017-12-31T16:11:41.242Z,28.60
2017-12-31T16:14:09.403Z,27.80
2017-12-31T16:16:37.591Z,42.23
2017-12-31T16:19:05.773Z,54.97
2017-12-31T16:21:33.974Z,58.70
2017-12-31T16:24:03.023Z,54.77
2017-12-31T16:26:31.198Z,93.00
2017-12-31T16:28:59.384Z,56.17
2017-12-31T16:31:27.560Z,79.77
2017-12-31T16:33:55.906Z,70.67
2017-12-31T16:36:24.833Z,62.83
2017-12-31T16:38:53.004Z,66.23
2017-12-31T16:41:21.171Z,41.97
2017-12-31T16:43:49.330Z,28.67
2017-12-31T16:46:18.273Z,28.13
2017-12-31T16:48:46.478Z,23.77
2017-12-31T16:51:14.681Z,26.10
2017-12-31T16:53:43.599Z,22.93
2017-12-31T16:56:11.778Z,26.93
2017-12-31T16:58:39.978Z,27.20
2017-12-31T17:01:08.154Z,30.57
2017-12-31T17:03:36.331Z,28.70
2017-12-31T17:06:04.498Z,28.15
2017-12-31T17:08:32.681Z,38.13
2017-12-31T17:11:00.878Z,55.90
2017-12-31T17:13:29.812Z,52.07
2017-12-31T17:15:57.969Z,38.47
2017-12-31T17:18:26.136Z,43.47
2017-12-31T17:20:54.331Z,59.83
2017-12-31T17:23:22.536Z,30.60
2017-12-31T17:25:50.745Z,42.00
2017-12-31T17:28:19.699Z,81.67
2017-12-31T17:30:47.902Z,47.73
2017-12-31T17:33:16.124Z,40.60
2017-12-31T17:35:44.305Z,49.83
2017-12-31T17:38:12.473Z,40.33
2017-12-31T17:40:40.676Z,76.93
2017-12-31T17:43:08.854Z,155.17
2017-12-31T17:45:37.099Z,98.27
2017-12-31T17:48:05.331Z,98.50
2017-12-31T17:50:34.268Z,64.03
2017-12-31T17:53:02.430Z,53.10
2017-12-31T17:55:30.617Z,37.07
2017-12-31T17:57:58.802Z,70.50
2017-12-31T18:00:26.975Z,51.67
2017-12-31T18:02:55.138Z,33.60
2017-12-31T18:05:23.389Z,61.33
2017-12-31T18:07:51.527Z,44.27
2017-12-31T18:10:19.689Z,37.67
2017-12-31T18:12:47.868Z,42.20
2017-12-31T18:15:16.050Z,68.90
2017-12-31T18:17:44.222Z,49.23
2017-12-31T18:20:12.385Z,55.13
2017-12-31T18:22:40.585Z,42.10
2017-12-31T18:25:08.760Z,68.40
2017-12-31T18:27:36.933Z,45.00
2017-12-31T18:30:05.141Z,41.03
2017-12-31T18:32:33.337Z,44.27
2017-12-31T18:35:01.509Z,44.23
2017-12-31T18:37:29.668Z,43.13
2017-12-31T18:39:57.877Z,43.60
2017-12-31T18:42:26.071Z,55.40
2017-12-31T18:44:54.249Z,40.60
2017-12-31T18:47:22.424Z,37.20
2017-12-31T18:49:50.591Z,40.20
2017-12-31T18:52:18.794Z,36.03
2017-12-31T18:54:46.991Z,32.67
2017-12-31T18:57:15.155Z,33.27
2017-12-31T18:59:44.086Z,35.80
2017-12-31T19:02:12.285Z,36.07
2017-12-31T19:04:40.470Z,35.10
2017-12-31T19:07:08.645Z,32.87
2017-12-31T19:09:36.809Z,34.20
2017-12-31T19:12:04.979Z,33.50
2017-12-31T19:14:33.143Z,34.03
2017-12-31T19:17:01.324Z,39.83
2017-12-31T19:19:29.481Z,38.07
2017-12-31T19:21:57.649Z,39.40
2017-12-31T19:24:25.813Z,40.03
2017-12-31T19:26:54.010Z,40.30
2017-12-31T19:29:22.180Z,39.67
2017-12-31T19:31:50.348Z,37.90
2017-12-31T19:34:18.620Z,39.13
2017-12-31T19:36:46.771Z,33.63
2017-12-31T19:39:15.788Z,40.73
2017-12-31T19:41:43.951Z,62.87
2017-12-31T19:44:12.123Z,84.37
2017-12-31T19:46:40.282Z,49.13
2017-12-31T19:49:09.218Z,45.77
2017-12-31T19:51:37.376Z,60.67
2017-12-31T19:54:05.550Z,46.03
2017-12-31T19:56:33.713Z,39.77
2017-12-31T19:59:01.888Z,35.37
2017-12-31T20:01:30.053Z,44.70
2017-12-31T20:03:58.241Z,54.00
2017-12-31T20:06:26.399Z,43.40
2017-12-31T20:08:54.561Z,43.77
2017-12-31T20:11:23.488Z,51.67
2017-12-31T20:13:51.645Z,62.00
2017-12-31T20:16:19.823Z,60.10
2017-12-31T20:18:48.024Z,64.00
2017-12-31T20:21:16.187Z,60.50
2017-12-31T20:23:44.361Z,59.53
2017-12-31T20:26:12.567Z,52.10
2017-12-31T20:28:40.765Z,50.23
2017-12-31T20:31:09.704Z,81.73
2017-12-31T20:33:37.893Z,57.10
2017-12-31T20:36:06.155Z,50.63
2017-12-31T20:38:34.342Z,45.03
2017-12-31T20:41:02.528Z,40.83
2017-12-31T20:43:30.694Z,39.50
2017-12-31T20:45:58.910Z,46.33
2017-12-31T20:48:27.866Z,46.47
2017-12-31T20:50:56.031Z,45.13
2017-12-31T20:53:24.226Z,45.00
2017-12-31T20:55:52.402Z,50.13
2017-12-31T20:58:20.626Z,43.97
2017-12-31T21:00:48.798Z,44.47
2017-12-31T21:03:16.972Z,55.37
2017-12-31T21:05:45.141Z,71.40
2017-12-31T21:08:14.090Z,71.40
2017-12-31T21:10:42.256Z,76.17
2017-12-31T21:13:10.550Z,57.23
2017-12-31T21:15:38.760Z,51.63
2017-12-31T21:18:06.964Z,51.10
2017-12-31T21:20:35.158Z,54.03
2017-12-31T21:23:04.098Z,54.43
2017-12-31T21:25:32.299Z,52.70
2017-12-31T21:28:01.946Z,52.40
2017-12-31T21:30:30.177Z,49.80
2017-12-31T21:32:58.508Z,60.60
2017-12-31T21:35:26.749Z,58.23
2017-12-31T21:37:55.866Z,61.90
2017-12-31T21:40:24.073Z,66.80
2017-12-31T21:42:52.262Z,62.20
2017-12-31T21:45:20.424Z,52.30
2017-12-31T21:47:48.603Z,55.37
2017-12-31T21:50:16.972Z,54.53
2017-12-31T21:52:45.159Z,55.23
2017-12-31T21:55:13.423Z,62.00
2017-12-31T21:57:41.592Z,58.83
2017-12-31T22:00:09.781Z,62.93
2017-12-31T22:02:37.954Z,60.63
2017-12-31T22:05:06.120Z,57.63
2017-12-31T22:07:34.287Z,56.73
2017-12-31T22:10:02.451Z,53.53
2017-12-31T22:12:30.625Z,56.50
2017-12-31T22:14:58.782Z,57.40
2017-12-31T22:17:27.787Z,48.10
2017-12-31T22:19:55.961Z,70.13
2017-12-31T22:22:24.124Z,56.23
2017-12-31T22:24:53.067Z,68.40
2017-12-31T22:27:21.231Z,76.60
2017-12-31T22:29:49.429Z,96.27
2017-12-31T22:32:17.617Z,78.60
2017-12-31T22:34:45.786Z,62.80
2017-12-31T22:37:13.969Z,69.60
2017-12-31T22:39:42.147Z,78.10
2017-12-31T22:42:11.123Z,69.40
2017-12-31T22:44:39.341Z,163.80
2017-12-31T22:47:07.544Z,107.57
2017-12-31T22:49:35.839Z,98.43
2017-12-31T22:52:03.999Z,98.30
2017-12-31T22:54:32.169Z,90.53
2017-12-31T22:57:00.327Z,93.83
2017-12-31T22:59:28.649Z,72.27
2017-12-31T23:01:57.286Z,68.73
2017-12-31T23:04:25.540Z,65.47
2017-12-31T23:06:53.683Z,104.33
2017-12-31T23:09:21.878Z,69.77
2017-12-31T23:11:50.045Z,109.60
2017-12-31T23:14:18.211Z,137.70
2017-12-31T23:16:46.400Z,174.27
2017-12-31T23:19:14.570Z,148.70
2017-12-31T23:21:42.748Z,208.33
2017-12-31T23:24:10.924Z,201.40
2017-12-31T23:26:39.129Z,187.00
2017-12-31T23:29:07.308Z,184.73
2017-12-31T23:31:35.476Z,170.10
2017-12-31T23:34:03.655Z,172.00
2017-12-31T23:36:31.825Z,183.00
2017-12-31T23:38:59.989Z,205.37
2017-12-31T23:41:28.930Z,222.20
2017-12-31T23:43:57.097Z,215.10
2017-12-31T23:46:25.270Z,179.77
2017-12-31T23:48:53.434Z,143.37
2017-12-31T23:51:21.590Z,144.30
2017-12-31T23:53:49.761Z,136.30
2017-12-31T23:56:17.937Z,133.10
2017-12-31T23:58:46.103Z,130.23
